createdAt,value
2018-09-19T00:02:17.192Z,18.80
2018-09-19T00:04:45.731Z,18.79
2018-09-19T00:07:14.397Z,18.77
2018-09-19T00:09:42.997Z,18.74
2018-09-19T00:12:11.568Z,18.70
2018-09-19T00:14:40.276Z,18.68
2018-09-19T00:17:08.897Z,18.68
2018-09-19T00:19:37.441Z,18.65
2018-09-19T00:22:05.989Z,18.64
2018-09-19T00:24:34.595Z,18.59
2018-09-19T00:27:03.115Z,18.55
2018-09-19T00:29:31.733Z,18.54
2018-09-19T00:32:01.137Z,18.49
2018-09-19T00:34:29.828Z,18.48
2018-09-19T00:36:58.585Z,18.42
2018-09-19T00:39:27.081Z,18.39
2018-09-19T00:41:55.587Z,18.35
2018-09-19T00:44:24.228Z,18.30
2018-09-19T00:46:52.711Z,18.25
2018-09-19T00:49:21.384Z,18.22
2018-09-19T00:51:49.897Z,18.18
2018-09-19T00:54:18.474Z,18.09
2018-09-19T00:56:47.131Z,18.03
2018-09-19T00:59:15.690Z,17.96
2018-09-19T01:01:45.034Z,17.89
2018-09-19T01:04:13.598Z,17.83
2018-09-19T01:06:42.294Z,17.74
2018-09-19T01:09:10.979Z,17.67
2018-09-19T01:11:39.983Z,17.60
2018-09-19T01:14:08.716Z,17.55
2018-09-19T01:16:37.286Z,17.50
2018-09-19T01:19:05.869Z,17.50
2018-09-19T01:21:34.424Z,17.46
2018-09-19T01:24:03.137Z,17.44
2018-09-19T01:26:32.467Z,17.40
2018-09-19T01:29:01.052Z,17.39
2018-09-19T01:31:29.599Z,17.35
2018-09-19T01:33:58.244Z,17.33
2018-09-19T01:36:27.802Z,17.32
2018-09-19T01:38:56.515Z,17.30
2018-09-19T01:41:25.015Z,17.26
2018-09-19T01:43:53.679Z,17.23
2018-09-19T01:46:22.208Z,17.21
2018-09-19T01:48:51.070Z,17.19
2018-09-19T01:51:19.682Z,17.17
2018-09-19T01:53:49.263Z,17.17
2018-09-19T01:56:18.496Z,17.13
2018-09-19T01:58:47.141Z,17.10
2018-09-19T02:01:15.684Z,17.10
2018-09-19T02:03:44.318Z,17.10
2018-09-19T02:06:12.939Z,17.11
2018-09-19T02:08:41.735Z,17.13
2018-09-19T02:11:10.363Z,17.17
2018-09-19T02:13:38.956Z,17.18
2018-09-19T02:16:07.569Z,17.17
2018-09-19T02:18:36.890Z,17.14
2018-09-19T02:21:05.603Z,17.12
2018-09-19T02:23:34.224Z,17.08
2018-09-19T02:26:03.025Z,17.07
2018-09-19T02:28:31.723Z,17.04
2018-09-19T02:31:01.214Z,17.01
2018-09-19T02:33:30.250Z,17.01
2018-09-19T02:35:58.926Z,16.97
2018-09-19T02:38:27.543Z,16.94
2018-09-19T02:40:56.043Z,16.93
2018-09-19T02:43:24.668Z,16.92
2018-09-19T02:45:53.282Z,16.90
2018-09-19T02:48:21.869Z,16.87
2018-09-19T02:50:50.537Z,16.86
2018-09-19T02:53:19.107Z,16.85
2018-09-19T02:55:47.619Z,16.84
2018-09-19T02:58:16.541Z,16.81
2018-09-19T03:00:45.225Z,16.78
2018-09-19T03:03:14.851Z,16.75
2018-09-19T03:05:43.392Z,16.73
2018-09-19T03:08:12.013Z,16.70
2018-09-19T03:10:40.530Z,16.68
2018-09-19T03:13:09.073Z,16.65
2018-09-19T03:15:37.726Z,16.61
2018-09-19T03:18:06.291Z,16.59
2018-09-19T03:20:34.841Z,16.56
2018-09-19T03:23:03.570Z,16.50
2018-09-19T03:25:32.134Z,16.46
2018-09-19T03:28:00.816Z,16.39
2018-09-19T03:30:29.855Z,16.35
2018-09-19T03:32:58.328Z,16.32
2018-09-19T03:35:26.944Z,16.21
2018-09-19T03:37:55.429Z,16.11
2018-09-19T03:40:25.009Z,15.99
2018-09-19T03:42:53.595Z,15.89
2018-09-19T03:45:22.267Z,15.78
2018-09-19T03:47:50.937Z,15.75
2018-09-19T03:50:19.697Z,15.67
2018-09-19T03:52:48.785Z,15.55
2018-09-19T03:55:17.275Z,15.48
2018-09-19T03:57:45.733Z,15.44
2018-09-19T04:00:14.458Z,15.39
2018-09-19T04:02:42.984Z,15.29
2018-09-19T04:05:12.145Z,15.26
2018-09-19T04:07:40.627Z,15.24
2018-09-19T04:10:09.163Z,15.21
2018-09-19T04:12:37.708Z,15.20
2018-09-19T04:15:06.280Z,15.17
2018-09-19T04:17:34.920Z,15.17
2018-09-19T04:20:03.540Z,15.16
2018-09-19T04:22:32.065Z,15.07
2018-09-19T04:25:00.587Z,14.99
2018-09-19T04:27:29.193Z,14.93
2018-09-19T04:29:57.760Z,14.88
2018-09-19T04:32:26.494Z,14.88
2018-09-19T04:34:55.057Z,14.89
2018-09-19T04:37:23.644Z,14.89
2018-09-19T04:39:52.294Z,14.93
2018-09-19T04:42:20.873Z,14.98
2018-09-19T04:44:49.402Z,14.93
2018-09-19T04:47:18.081Z,14.86
2018-09-19T04:49:48.345Z,14.83
2018-09-19T04:52:16.965Z,14.85
2018-09-19T04:54:45.710Z,14.76
2018-09-19T04:57:14.298Z,14.70
2018-09-19T04:59:43.032Z,14.65
2018-09-19T05:02:11.591Z,14.60
2018-09-19T05:04:40.361Z,14.56
2018-09-19T05:07:09.666Z,14.57
2018-09-19T05:09:38.151Z,14.61
2018-09-19T05:12:06.949Z,14.70
2018-09-19T05:14:35.547Z,14.77
2018-09-19T05:17:04.231Z,14.90
2018-09-19T05:19:33.414Z,15.00
2018-09-19T05:22:03.023Z,15.13
2018-09-19T05:24:32.432Z,15.26
2018-09-19T05:27:01.029Z,15.40
2018-09-19T05:29:29.624Z,15.51
2018-09-19T05:31:58.247Z,15.65
2018-09-19T05:34:26.788Z,15.77
2018-09-19T05:36:55.566Z,15.93
2018-09-19T05:39:24.119Z,16.07
2018-09-19T05:41:52.988Z,16.18
2018-09-19T05:44:21.658Z,16.31
2018-09-19T05:46:50.785Z,16.41
2018-09-19T05:49:19.336Z,16.53
2018-09-19T05:51:48.032Z,16.64
2018-09-19T05:54:16.662Z,16.77
2018-09-19T05:56:45.309Z,16.89
2018-09-19T05:59:14.031Z,17.00
2018-09-19T06:01:42.613Z,17.10
2018-09-19T06:04:11.239Z,17.21
2018-09-19T06:06:39.816Z,17.31
2018-09-19T06:09:09.602Z,17.41
2018-09-19T06:11:38.191Z,17.52
2018-09-19T06:14:06.830Z,17.63
2018-09-19T06:16:35.574Z,17.75
2018-09-19T06:19:04.331Z,17.85
2018-09-19T06:21:32.928Z,17.97
2018-09-19T06:24:01.561Z,18.06
2018-09-19T06:26:30.160Z,18.15
2018-09-19T06:28:58.678Z,18.22
2018-09-19T06:31:27.274Z,18.32
2018-09-19T06:33:56.881Z,18.42
2018-09-19T06:36:25.449Z,18.53
2018-09-19T06:38:53.974Z,18.62
2018-09-19T06:41:22.572Z,18.74
2018-09-19T06:43:51.094Z,18.83
2018-09-19T06:46:20.592Z,18.92
2018-09-19T06:48:49.160Z,18.99
2018-09-19T06:51:17.677Z,19.09
2018-09-19T06:53:47.027Z,19.17
2018-09-19T06:56:15.609Z,19.27
2018-09-19T06:58:44.467Z,19.37
2018-09-19T07:01:13.085Z,19.46
2018-09-19T07:03:41.689Z,19.56
2018-09-19T07:06:10.230Z,19.65
2018-09-19T07:08:38.753Z,19.73
2018-09-19T07:11:07.324Z,19.79
2018-09-19T07:13:35.933Z,19.87
2018-09-19T07:16:04.704Z,19.94
2018-09-19T07:18:33.345Z,20.02
2018-09-19T07:21:01.991Z,20.10
2018-09-19T07:23:30.594Z,20.19
2018-09-19T07:25:59.285Z,20.24
2018-09-19T07:28:27.939Z,20.32
2018-09-19T07:30:56.519Z,20.37
2018-09-19T07:33:25.054Z,20.43
2018-09-19T07:35:54.342Z,20.51
2018-09-19T07:38:22.960Z,20.59
2018-09-19T07:40:51.622Z,20.68
2018-09-19T07:43:20.225Z,20.80
2018-09-19T07:45:49.039Z,20.94
2018-09-19T07:48:17.784Z,21.04
2018-09-19T07:50:46.445Z,21.15
2018-09-19T07:53:21.727Z,21.26
2018-09-19T07:55:50.393Z,21.37
2018-09-19T07:58:19.130Z,21.47
2018-09-19T08:00:47.884Z,21.56
2018-09-19T08:03:16.492Z,21.63
2018-09-19T08:05:44.946Z,21.69
2018-09-19T08:08:14.162Z,21.76
2018-09-19T08:10:43.160Z,21.82
2018-09-19T08:13:12.442Z,21.93
2018-09-19T08:15:42.011Z,22.03
2018-09-19T08:18:10.730Z,22.08
2018-09-19T08:20:39.461Z,22.17
2018-09-19T08:23:08.842Z,22.24
2018-09-19T08:25:37.380Z,22.32
2018-09-19T08:28:06.057Z,22.47
2018-09-19T08:30:35.191Z,22.59
2018-09-19T08:33:03.983Z,22.68
2018-09-19T08:35:32.616Z,22.79
2018-09-19T08:38:02.281Z,22.88
2018-09-19T08:40:30.805Z,22.97
2018-09-19T08:42:59.522Z,23.04
2018-09-19T08:45:28.333Z,23.15
2018-09-19T08:47:57.062Z,23.27
2018-09-19T08:50:25.636Z,23.33
2018-09-19T08:52:54.218Z,23.39
2018-09-19T08:55:22.983Z,23.40
2018-09-19T08:57:51.686Z,23.40
2018-09-19T09:00:20.536Z,23.51
2018-09-19T09:02:49.509Z,23.63
2018-09-19T09:05:18.117Z,23.74
2018-09-19T09:07:46.775Z,23.88
2018-09-19T09:10:15.444Z,23.95
2018-09-19T09:12:46.161Z,24.01
2018-09-19T09:15:14.771Z,24.16
2018-09-19T09:17:43.478Z,24.24
2018-09-19T09:20:12.114Z,24.25
2018-09-19T09:22:40.611Z,24.34
2018-09-19T09:25:09.521Z,24.44
2018-09-19T09:27:38.108Z,24.45
2018-09-19T09:30:07.220Z,24.56
2018-09-19T09:32:36.021Z,24.57
2018-09-19T09:35:05.101Z,24.68
2018-09-19T09:37:33.798Z,24.82
2018-09-19T09:40:02.464Z,24.92
2018-09-19T09:42:31.269Z,24.96
2018-09-19T09:44:59.859Z,24.88
2018-09-19T09:47:28.450Z,24.90
2018-09-19T09:49:57.155Z,25.03
2018-09-19T09:52:26.011Z,25.06
2018-09-19T09:54:54.655Z,25.15
2018-09-19T09:57:23.325Z,25.23
2018-09-19T09:59:51.975Z,25.36
2018-09-19T10:02:20.501Z,25.39
2018-09-19T10:04:49.781Z,25.44
2018-09-19T10:07:18.597Z,25.53
2018-09-19T10:09:47.317Z,25.53
2018-09-19T10:12:16.026Z,25.64
2018-09-19T10:14:44.586Z,25.81
2018-09-19T10:17:13.248Z,25.78
2018-09-19T10:19:41.818Z,25.87
2018-09-19T10:22:10.431Z,25.94
2018-09-19T10:24:39.058Z,26.04
2018-09-19T10:27:07.590Z,26.12
2018-09-19T10:29:37.403Z,26.25
2018-09-19T10:32:05.990Z,26.36
2018-09-19T10:34:34.978Z,26.55
2018-09-19T10:37:03.600Z,26.78
2018-09-19T10:39:32.310Z,26.95
2018-09-19T10:42:00.981Z,27.07
2018-09-19T10:44:29.665Z,27.20
2018-09-19T10:46:58.429Z,27.41
2018-09-19T10:49:27.266Z,27.31
2018-09-19T10:51:56.017Z,27.35
2018-09-19T10:54:24.681Z,27.43
2018-09-19T10:56:53.237Z,27.67
2018-09-19T10:59:22.085Z,27.90
2018-09-19T11:01:50.602Z,27.94
2018-09-19T11:04:19.189Z,28.17
2018-09-19T11:06:47.950Z,28.54
2018-09-19T11:09:16.546Z,28.70
2018-09-19T11:11:45.265Z,28.82
2018-09-19T11:14:13.859Z,28.98
2018-09-19T11:16:42.526Z,29.25
2018-09-19T11:19:11.151Z,29.70
2018-09-19T11:21:39.738Z,30.19
2018-09-19T11:24:08.811Z,30.79
2018-09-19T11:26:37.587Z,31.34
2018-09-19T11:29:06.166Z,31.30
2018-09-19T11:31:35.012Z,31.66
2018-09-19T11:34:03.833Z,31.42
2018-09-19T11:36:32.536Z,31.38
2018-09-19T11:39:01.074Z,31.39
2018-09-19T11:41:29.700Z,31.94
2018-09-19T11:43:58.230Z,32.09
2018-09-19T11:46:27.941Z,32.21
2018-09-19T11:48:56.481Z,32.97
2018-09-19T11:51:25.039Z,33.88
2018-09-19T11:53:53.614Z,33.70
2018-09-19T11:56:22.208Z,33.25
2018-09-19T11:58:50.793Z,33.21
2018-09-19T12:01:19.552Z,33.77
2018-09-19T12:03:48.926Z,34.39
2018-09-19T12:06:17.478Z,34.12
2018-09-19T12:08:46.065Z,34.33
2018-09-19T12:11:14.578Z,34.59
2018-09-19T12:13:43.226Z,35.08
2018-09-19T12:16:11.826Z,35.60
2018-09-19T12:18:40.494Z,35.48
2018-09-19T12:21:09.104Z,34.64
2018-09-19T12:23:38.379Z,34.51
2018-09-19T12:26:07.091Z,35.18
2018-09-19T12:28:35.685Z,35.09
2018-09-19T12:31:04.333Z,34.60
2018-09-19T12:33:33.230Z,34.41
2018-09-19T12:36:01.781Z,34.60
2018-09-19T12:38:30.497Z,34.23
2018-09-19T12:40:59.032Z,34.44
2018-09-19T12:43:27.607Z,35.01
2018-09-19T12:45:56.215Z,35.70
2018-09-19T12:48:24.758Z,36.56
2018-09-19T12:50:53.383Z,36.08
2018-09-19T12:53:23.798Z,35.74
2018-09-19T12:55:53.528Z,35.87
2018-09-19T12:58:22.115Z,36.27
2018-09-19T13:00:51.368Z,36.88
2018-09-19T13:03:19.921Z,37.46
2018-09-19T13:05:49.519Z,37.27
2018-09-19T13:08:18.221Z,36.25
2018-09-19T13:10:47.915Z,35.75
2018-09-19T13:13:16.710Z,35.47
2018-09-19T13:15:45.583Z,35.49
2018-09-19T13:18:14.108Z,34.58
2018-09-19T13:20:42.847Z,34.19
2018-09-19T13:23:11.339Z,33.72
2018-09-19T13:25:40.029Z,33.55
2018-09-19T13:28:08.997Z,33.90
2018-09-19T13:30:37.791Z,34.46
2018-09-19T13:33:06.403Z,34.33
2018-09-19T13:35:34.947Z,34.59
2018-09-19T13:38:03.656Z,34.53
2018-09-19T13:40:32.169Z,34.68
2018-09-19T13:43:00.806Z,34.66
2018-09-19T13:45:29.501Z,34.92
2018-09-19T13:47:58.182Z,34.69
2018-09-19T13:50:36.950Z,34.56
2018-09-19T13:53:05.482Z,34.75
2018-09-19T13:55:33.993Z,34.78
2018-09-19T13:58:02.565Z,34.87
2018-09-19T14:00:31.685Z,34.90
2018-09-19T14:03:00.309Z,34.98
2018-09-19T14:05:28.890Z,35.39
2018-09-19T14:07:57.434Z,35.61
2018-09-19T14:10:26.057Z,36.16
2018-09-19T14:12:54.526Z,36.81
2018-09-19T14:15:23.236Z,36.95
2018-09-19T14:17:52.805Z,36.34
2018-09-19T14:20:21.294Z,35.67
2018-09-19T14:22:49.952Z,35.87
2018-09-19T14:25:18.541Z,36.22
2018-09-19T14:27:47.033Z,35.42
2018-09-19T14:30:15.856Z,33.69
2018-09-19T14:32:44.531Z,32.70
2018-09-19T14:35:13.389Z,32.49
2018-09-19T14:37:41.918Z,32.39
2018-09-19T14:40:10.507Z,31.69
2018-09-19T14:42:40.006Z,31.62
2018-09-19T14:45:08.727Z,32.06
2018-09-19T14:47:37.377Z,32.31
2018-09-19T14:50:06.936Z,31.87
2018-09-19T14:52:35.485Z,31.66
2018-09-19T14:55:04.330Z,31.54
2018-09-19T14:57:38.407Z,31.36
2018-09-19T15:00:08.468Z,31.14
2018-09-19T15:02:39.267Z,31.12
2018-09-19T15:05:07.870Z,31.14
2018-09-19T15:07:36.413Z,31.27
2018-09-19T15:10:05.088Z,31.54
2018-09-19T15:12:33.563Z,31.57
2018-09-19T15:15:02.133Z,31.56
2018-09-19T15:17:30.757Z,31.33
2018-09-19T15:19:59.340Z,31.15
2018-09-19T15:22:27.958Z,31.30
2018-09-19T15:24:56.697Z,31.41
2018-09-19T15:27:25.379Z,31.53
2018-09-19T15:29:54.159Z,31.66
2018-09-19T15:32:22.825Z,31.82
2018-09-19T15:34:51.620Z,31.91
2018-09-19T15:37:20.159Z,31.98
2018-09-19T15:39:48.644Z,32.12
2018-09-19T15:42:17.195Z,32.10
2018-09-19T15:44:46.049Z,32.02
2018-09-19T15:47:14.783Z,31.90
2018-09-19T15:49:43.348Z,31.86
2018-09-19T15:52:12.067Z,31.81
2018-09-19T15:54:40.724Z,31.64
2018-09-19T15:57:10.353Z,31.53
2018-09-19T15:59:39.112Z,31.18
2018-09-19T16:02:07.741Z,30.88
2018-09-19T16:04:36.668Z,30.59
2018-09-19T16:07:05.807Z,30.18
2018-09-19T16:09:34.618Z,29.93
2018-09-19T16:12:02.986Z,29.66
2018-09-19T16:14:31.605Z,29.33
2018-09-19T16:17:01.271Z,29.12
2018-09-19T16:19:30.539Z,28.97
2018-09-19T16:21:59.091Z,28.87
2018-09-19T16:24:27.985Z,28.69
2018-09-19T16:26:56.455Z,28.51
2018-09-19T16:29:25.357Z,28.23
2018-09-19T16:31:53.961Z,27.94
2018-09-19T16:34:22.813Z,27.66
2018-09-19T16:36:51.278Z,27.50
2018-09-19T16:39:19.834Z,27.28
2018-09-19T16:41:48.482Z,27.00
2018-09-19T16:44:17.285Z,26.76
2018-09-19T16:46:46.083Z,26.50
2018-09-19T16:49:14.898Z,26.29
2018-09-19T16:51:43.652Z,26.17
2018-09-19T16:54:12.271Z,25.98
2018-09-19T16:56:41.530Z,25.87
2018-09-19T16:59:10.131Z,25.72
2018-09-19T17:01:39.021Z,25.51
2018-09-19T17:04:08.577Z,25.31
2018-09-19T17:06:37.271Z,25.12
2018-09-19T17:09:07.548Z,24.97
2018-09-19T17:11:36.430Z,24.85
2018-09-19T17:14:04.984Z,24.76
2018-09-19T17:16:33.705Z,24.70
2018-09-19T17:19:03.276Z,24.59
2018-09-19T17:21:31.879Z,24.48
2018-09-19T17:24:01.093Z,24.37
2018-09-19T17:26:29.754Z,24.30
2018-09-19T17:28:59.051Z,24.30
2018-09-19T17:31:27.750Z,24.28
2018-09-19T17:33:57.319Z,24.26
2018-09-19T17:36:25.792Z,24.28
2018-09-19T17:38:54.461Z,24.28
2018-09-19T17:41:23.179Z,24.27
2018-09-19T17:43:51.980Z,24.19
2018-09-19T17:46:21.710Z,24.11
2018-09-19T17:48:50.436Z,24.05
2018-09-19T17:51:18.987Z,23.86
2018-09-19T17:53:47.614Z,23.69
2018-09-19T17:56:16.355Z,23.52
2018-09-19T17:58:45.033Z,23.37
2018-09-19T18:01:13.746Z,23.21
2018-09-19T18:03:42.593Z,23.07
2018-09-19T18:06:11.439Z,22.93
2018-09-19T18:08:39.966Z,22.81
2018-09-19T18:11:08.538Z,22.58
2018-09-19T18:13:37.191Z,22.44
2018-09-19T18:16:06.214Z,22.26
2018-09-19T18:18:34.732Z,22.18
2018-09-19T18:21:03.440Z,22.15
2018-09-19T18:23:31.998Z,22.14
2018-09-19T18:26:00.582Z,22.15
2018-09-19T18:28:29.053Z,22.19
2018-09-19T18:30:57.808Z,22.17
2018-09-19T18:33:26.338Z,22.13
2018-09-19T18:35:54.827Z,22.06
2018-09-19T18:38:23.423Z,22.00
2018-09-19T18:40:52.002Z,21.98
2018-09-19T18:43:20.700Z,21.82
2018-09-19T18:45:50.307Z,21.67
2018-09-19T18:48:18.977Z,21.57
2018-09-19T18:50:47.701Z,21.38
2018-09-19T18:53:16.241Z,21.20
2018-09-19T18:55:44.873Z,21.10
2018-09-19T18:58:13.415Z,21.04
2018-09-19T19:00:42.243Z,20.88
2018-09-19T19:03:10.910Z,20.67
2018-09-19T19:05:39.510Z,20.54
2018-09-19T19:08:08.197Z,20.51
2018-09-19T19:10:36.898Z,20.47
2018-09-19T19:13:05.684Z,20.48
2018-09-19T19:15:34.404Z,20.53
2018-09-19T19:18:03.102Z,20.59
2018-09-19T19:20:31.857Z,20.57
2018-09-19T19:23:00.602Z,20.44
2018-09-19T19:25:29.146Z,20.28
2018-09-19T19:27:57.785Z,20.20
2018-09-19T19:30:26.398Z,20.08
2018-09-19T19:32:55.097Z,20.11
2018-09-19T19:35:23.799Z,20.13
2018-09-19T19:37:52.330Z,20.05
2018-09-19T19:40:21.207Z,20.05
2018-09-19T19:42:49.949Z,19.99
2018-09-19T19:45:18.584Z,19.94
2018-09-19T19:47:47.147Z,19.79
2018-09-19T19:50:15.749Z,19.71
2018-09-19T19:52:44.533Z,19.78
2018-09-19T19:55:13.426Z,19.69
2018-09-19T19:57:43.483Z,19.69
2018-09-19T20:00:12.950Z,19.53
2018-09-19T20:02:41.646Z,19.42
2018-09-19T20:05:10.409Z,19.35
2018-09-19T20:07:39.143Z,19.35
2018-09-19T20:10:09.485Z,19.31
2018-09-19T20:12:38.754Z,19.26
2018-09-19T20:15:07.474Z,19.24
2018-09-19T20:17:36.144Z,19.27
2018-09-19T20:20:04.730Z,19.36
2018-09-19T20:22:33.494Z,19.38
2018-09-19T20:25:02.068Z,19.28
2018-09-19T20:27:30.734Z,19.17
2018-09-19T20:29:59.399Z,19.06
2018-09-19T20:32:27.865Z,18.99
2018-09-19T20:34:56.805Z,18.89
2018-09-19T20:37:25.336Z,18.83
2018-09-19T20:39:54.036Z,18.78
2018-09-19T20:42:23.694Z,18.75
2018-09-19T20:44:52.835Z,18.71
2018-09-19T20:47:21.505Z,18.67
2018-09-19T20:49:50.026Z,18.66
2018-09-19T20:52:18.770Z,18.57
2018-09-19T20:54:47.616Z,18.44
2018-09-19T20:57:16.208Z,18.27
2018-09-19T20:59:44.893Z,18.15
2018-09-19T21:02:13.493Z,18.11
2018-09-19T21:04:42.131Z,18.18
2018-09-19T21:07:10.681Z,18.19
2018-09-19T21:09:39.514Z,18.23
2018-09-19T21:12:08.070Z,18.20
2018-09-19T21:14:36.729Z,18.22
2018-09-19T21:17:05.393Z,18.11
2018-09-19T21:19:33.925Z,18.00
2018-09-19T21:22:03.314Z,17.98
2018-09-19T21:24:31.932Z,18.01
2018-09-19T21:27:00.493Z,18.03
2018-09-19T21:29:29.265Z,18.05
2018-09-19T21:31:57.824Z,18.06
2018-09-19T21:34:26.493Z,17.89
2018-09-19T21:36:55.059Z,17.82
2018-09-19T21:39:23.740Z,17.78
2018-09-19T21:41:52.322Z,17.76
2018-09-19T21:44:20.862Z,17.74
2018-09-19T21:46:49.505Z,17.74
2018-09-19T21:49:18.087Z,17.72
2018-09-19T21:51:46.688Z,17.67
2018-09-19T21:54:15.293Z,17.75
2018-09-19T21:56:43.853Z,17.64
2018-09-19T21:59:12.539Z,17.58
2018-09-19T22:01:42.067Z,17.60
2018-09-19T22:04:11.079Z,17.65
2018-09-19T22:06:40.106Z,17.51
2018-09-19T22:09:10.992Z,17.45
2018-09-19T22:11:40.107Z,17.45
2018-09-19T22:14:08.688Z,17.46
2018-09-19T22:16:37.295Z,17.40
2018-09-19T22:19:06.936Z,17.38
2018-09-19T22:21:35.522Z,17.20
2018-09-19T22:24:05.073Z,17.20
2018-09-19T22:26:34.055Z,17.27
2018-09-19T22:29:02.696Z,17.27
2018-09-19T22:31:31.261Z,17.16
2018-09-19T22:33:59.880Z,17.15
2018-09-19T22:36:28.418Z,17.16
2018-09-19T22:38:57.542Z,17.08
2018-09-19T22:41:26.190Z,17.00
2018-09-19T22:43:54.760Z,16.99
2018-09-19T22:46:24.345Z,17.05
2018-09-19T22:48:52.897Z,16.92
2018-09-19T22:51:21.597Z,16.84
2018-09-19T22:53:50.196Z,16.83
2018-09-19T22:56:18.761Z,16.75
2018-09-19T22:58:47.401Z,16.65
2018-09-19T23:01:16.057Z,16.56
2018-09-19T23:03:44.651Z,16.54
2018-09-19T23:06:13.322Z,16.55
2018-09-19T23:08:42.070Z,16.58
2018-09-19T23:11:10.557Z,16.53
2018-09-19T23:13:39.098Z,16.42
2018-09-19T23:16:07.911Z,16.34
2018-09-19T23:18:36.445Z,16.37
2018-09-19T23:21:05.298Z,16.37
2018-09-19T23:23:33.845Z,16.31
2018-09-19T23:26:02.447Z,16.19
2018-09-19T23:28:31.039Z,16.17
2018-09-19T23:30:59.517Z,16.10
2018-09-19T23:33:28.083Z,16.07
2018-09-19T23:35:56.655Z,15.98
2018-09-19T23:38:25.371Z,16.01
2018-09-19T23:40:53.970Z,15.96
2018-09-19T23:43:22.568Z,15.86
2018-09-19T23:45:51.224Z,15.81
2018-09-19T23:48:19.917Z,15.79
2018-09-19T23:50:49.685Z,15.76
2018-09-19T23:53:18.249Z,15.66
2018-09-19T23:55:46.883Z,15.59
2018-09-19T23:58:15.414Z,15.62
